createdAt,value
2019-03-19T00:01:58.540Z,1.40
2019-03-19T00:04:58.529Z,1.40
2019-03-19T00:07:58.563Z,1.40
2019-03-19T00:10:58.539Z,1.40
2019-03-19T00:13:58.482Z,1.40
2019-03-19T00:16:57.650Z,1.30
2019-03-19T00:19:57.568Z,1.30
2019-03-19T00:22:56.761Z,1.20
2019-03-19T00:25:56.742Z,1.10
2019-03-19T00:28:56.546Z,1.00
2019-03-19T00:31:55.672Z,1.00
2019-03-19T00:34:55.196Z,1.00
2019-03-19T00:37:54.595Z,1.00
2019-03-19T00:40:53.774Z,1.00
2019-03-19T00:43:52.989Z,0.90
2019-03-19T00:46:52.465Z,1.00
2019-03-19T00:49:51.807Z,0.90
2019-03-19T00:52:50.990Z,0.80
2019-03-19T00:55:50.471Z,0.80
2019-03-19T00:58:49.690Z,0.80
2019-03-19T01:01:48.961Z,0.90
2019-03-19T01:04:48.149Z,0.90
2019-03-19T01:07:47.206Z,0.90
2019-03-19T01:10:46.526Z,0.90
2019-03-19T01:13:45.896Z,0.80
2019-03-19T01:16:45.035Z,0.70
2019-03-19T01:19:44.331Z,0.60
2019-03-19T01:22:43.749Z,0.70
2019-03-19T01:25:54.775Z,0.60
2019-03-19T01:28:44.486Z,0.60
2019-03-19T01:31:43.625Z,0.60
2019-03-19T01:34:42.797Z,0.50
2019-03-19T01:37:42.032Z,0.40
2019-03-19T01:40:41.426Z,0.40
2019-03-19T01:43:40.624Z,0.40
2019-03-19T01:46:39.711Z,0.40
2019-03-19T01:49:38.996Z,0.40
2019-03-19T01:52:38.034Z,0.40
2019-03-19T01:55:37.400Z,0.40
2019-03-19T01:58:36.710Z,0.40
2019-03-19T02:01:35.959Z,0.40
2019-03-19T02:04:35.846Z,0.30
2019-03-19T02:07:34.971Z,0.20
2019-03-19T02:10:34.050Z,0.20
2019-03-19T02:13:33.106Z,0.20
2019-03-19T02:16:32.384Z,0.20
2019-03-19T02:19:31.374Z,0.20
2019-03-19T02:22:30.642Z,0.20
2019-03-19T02:25:30.027Z,0.00
2019-03-19T02:28:36.225Z,0.00
2019-03-19T02:31:35.484Z,0.00
2019-03-19T02:34:35.603Z,0.00
2019-03-19T02:37:34.867Z,0.00
2019-03-19T02:40:34.182Z,0.00
2019-03-19T02:43:33.771Z,0.10
2019-03-19T02:46:33.836Z,0.00
2019-03-19T02:49:33.127Z,-0.10
2019-03-19T02:52:32.360Z,-0.10
2019-03-19T02:55:31.673Z,-0.20
2019-03-19T02:58:31.011Z,-0.20
2019-03-19T03:01:30.550Z,-0.10
2019-03-19T03:04:29.810Z,0.00
2019-03-19T03:07:29.222Z,-0.10
2019-03-19T03:10:28.443Z,-0.10
2019-03-19T03:13:27.625Z,0.00
2019-03-19T03:16:26.791Z,-0.10
2019-03-19T03:19:26.076Z,-0.30
2019-03-19T03:22:25.272Z,-0.40
2019-03-19T03:25:24.541Z,-0.40
2019-03-19T03:28:23.720Z,-0.40
2019-03-19T03:31:23.127Z,-0.40
2019-03-19T03:34:22.530Z,-0.40
2019-03-19T03:37:21.616Z,-0.40
2019-03-19T03:40:20.901Z,-0.50
2019-03-19T03:43:20.326Z,-0.40
2019-03-19T03:46:20.129Z,-0.40
2019-03-19T03:49:20.616Z,-0.40
2019-03-19T03:52:20.750Z,-0.40
2019-03-19T03:55:21.111Z,-0.40
2019-03-19T03:58:21.274Z,-0.40
2019-03-19T04:01:21.656Z,-0.30
2019-03-19T04:04:20.998Z,-0.30
2019-03-19T04:07:20.892Z,-0.30
2019-03-19T04:10:21.073Z,-0.40
2019-03-19T04:13:20.383Z,-0.30
2019-03-19T04:16:19.649Z,-0.30
2019-03-19T04:19:19.737Z,-0.30
2019-03-19T04:22:19.050Z,-0.20
2019-03-19T04:25:18.260Z,-0.10
2019-03-19T04:28:17.576Z,-0.10
2019-03-19T04:31:16.740Z,-0.10
2019-03-19T04:34:15.792Z,-0.20
2019-03-19T04:37:14.800Z,-0.20
2019-03-19T04:40:13.956Z,-0.20
2019-03-19T04:43:13.124Z,-0.20
2019-03-19T04:46:12.460Z,-0.10
2019-03-19T04:49:11.701Z,0.00
2019-03-19T04:52:10.933Z,0.00
2019-03-19T04:55:09.935Z,0.00
2019-03-19T04:58:09.770Z,-0.10
2019-03-19T05:01:09.678Z,-0.10
2019-03-19T05:04:09.611Z,-0.10
2019-03-19T05:07:09.019Z,-0.10
2019-03-19T05:10:09.024Z,-0.10
2019-03-19T05:13:08.309Z,0.00
2019-03-19T05:16:07.490Z,0.00
2019-03-19T05:19:07.069Z,-0.10
2019-03-19T05:22:06.449Z,-0.10
2019-03-19T05:25:05.739Z,0.00
2019-03-19T05:28:04.904Z,0.00
2019-03-19T05:31:04.016Z,0.00
2019-03-19T05:34:03.167Z,0.00
2019-03-19T05:37:02.609Z,0.10
2019-03-19T05:40:02.549Z,0.10
2019-03-19T05:43:01.629Z,0.20
2019-03-19T05:46:00.929Z,0.10
2019-03-19T05:49:01.020Z,0.20
2019-03-19T05:52:00.084Z,0.40
2019-03-19T05:54:59.309Z,0.50
2019-03-19T05:57:59.248Z,0.60
2019-03-19T06:00:58.451Z,0.80
2019-03-19T06:03:57.667Z,0.90
2019-03-19T06:06:56.798Z,1.00
2019-03-19T06:09:56.619Z,1.10
2019-03-19T06:12:56.605Z,1.30
2019-03-19T06:15:56.413Z,1.30
2019-03-19T06:18:55.525Z,1.30
2019-03-19T06:21:56.754Z,1.30
2019-03-19T06:24:55.993Z,1.30
2019-03-19T06:28:00.220Z,1.30
2019-03-19T06:30:56.018Z,1.30
2019-03-19T06:33:55.171Z,1.40
2019-03-19T06:36:54.314Z,1.40
2019-03-19T06:39:53.693Z,1.60
2019-03-19T06:42:52.881Z,1.70
2019-03-19T06:45:52.298Z,1.80
2019-03-19T06:48:51.655Z,2.00
2019-03-19T06:51:51.235Z,2.20
2019-03-19T06:54:51.354Z,2.30
2019-03-19T06:57:50.599Z,2.50
2019-03-19T07:00:50.685Z,2.50
2019-03-19T07:03:50.522Z,2.60
2019-03-19T07:06:50.505Z,2.80
2019-03-19T07:09:50.405Z,3.00
2019-03-19T07:12:49.574Z,3.10
2019-03-19T07:15:48.705Z,3.30
2019-03-19T07:18:48.135Z,3.30
2019-03-19T07:21:54.606Z,3.30
2019-03-19T07:25:00.614Z,3.40
2019-03-19T07:28:00.025Z,3.60
2019-03-19T07:30:59.138Z,3.80
2019-03-19T07:33:58.360Z,3.90
2019-03-19T07:36:58.351Z,4.00
2019-03-19T07:39:57.788Z,4.20
2019-03-19T07:42:57.281Z,4.30
2019-03-19T07:45:56.526Z,4.40
2019-03-19T07:48:56.017Z,4.50
2019-03-19T07:51:55.299Z,4.60
2019-03-19T07:54:55.250Z,4.60
2019-03-19T07:57:54.758Z,4.70
2019-03-19T08:00:53.908Z,4.70
2019-03-19T08:03:53.535Z,4.80
2019-03-19T08:06:53.594Z,4.90
2019-03-19T08:09:53.180Z,4.90
2019-03-19T08:16:13.806Z,5.20
2019-03-19T08:19:13.120Z,5.00
2019-03-19T08:22:13.127Z,5.10
2019-03-19T08:25:12.231Z,5.20
2019-03-19T08:28:11.579Z,5.30
2019-03-19T08:31:10.630Z,5.40
2019-03-19T08:34:09.868Z,5.50
2019-03-19T08:37:09.184Z,5.60
2019-03-19T08:40:08.500Z,5.90
2019-03-19T08:43:07.858Z,6.00
2019-03-19T08:46:07.159Z,5.90
2019-03-19T08:49:07.217Z,6.00
2019-03-19T08:52:07.361Z,6.00
2019-03-19T08:55:06.896Z,6.00
2019-03-19T08:58:06.569Z,6.20
2019-03-19T09:01:06.744Z,6.30
2019-03-19T09:04:06.826Z,6.40
2019-03-19T09:07:05.872Z,6.50
2019-03-19T09:10:05.985Z,6.40
2019-03-19T09:13:05.399Z,6.10
2019-03-19T09:16:04.779Z,6.20
2019-03-19T09:19:03.826Z,6.40
2019-03-19T09:22:03.066Z,6.60
2019-03-19T09:25:02.274Z,6.80
2019-03-19T09:28:01.785Z,7.30
2019-03-19T09:31:01.899Z,7.50
2019-03-19T09:34:00.982Z,7.60
2019-03-19T09:37:00.252Z,7.70
2019-03-19T09:39:59.687Z,7.70
2019-03-19T09:42:59.774Z,7.80
2019-03-19T09:45:58.858Z,7.70
2019-03-19T09:48:58.105Z,7.20
2019-03-19T09:51:57.349Z,7.00
2019-03-19T09:54:56.585Z,7.10
2019-03-19T09:57:55.889Z,7.20
2019-03-19T10:00:55.276Z,7.30
2019-03-19T10:03:54.459Z,6.90
2019-03-19T10:06:53.608Z,7.00
2019-03-19T10:09:53.101Z,7.20
2019-03-19T10:12:52.620Z,7.30
2019-03-19T10:15:52.516Z,7.50
2019-03-19T10:18:51.977Z,7.70
2019-03-19T10:21:51.119Z,7.90
2019-03-19T10:24:50.643Z,7.80
2019-03-19T10:27:50.883Z,7.90
2019-03-19T10:30:50.158Z,8.10
2019-03-19T10:33:49.388Z,8.50
2019-03-19T10:36:48.581Z,8.80
2019-03-19T10:39:47.958Z,8.70
2019-03-19T10:42:47.403Z,8.40
2019-03-19T10:45:46.638Z,8.10
2019-03-19T10:48:46.613Z,8.00
2019-03-19T10:51:46.363Z,8.00
2019-03-19T10:54:46.609Z,8.20
2019-03-19T10:57:47.176Z,8.40
2019-03-19T11:00:46.984Z,8.50
2019-03-19T11:03:47.285Z,8.70
2019-03-19T11:06:47.785Z,8.60
2019-03-19T11:09:48.269Z,8.70
2019-03-19T11:12:47.859Z,8.90
2019-03-19T11:15:48.110Z,9.20
2019-03-19T11:18:47.859Z,9.20
2019-03-19T11:21:48.374Z,9.10
2019-03-19T11:24:47.890Z,8.80
2019-03-19T11:27:47.049Z,8.70
2019-03-19T11:30:46.417Z,8.60
2019-03-19T11:33:47.639Z,8.40
2019-03-19T11:36:57.182Z,8.60
2019-03-19T11:39:48.739Z,8.70
2019-03-19T11:42:48.913Z,9.00
2019-03-19T11:45:49.060Z,9.00
2019-03-19T11:48:49.029Z,8.90
2019-03-19T11:51:48.313Z,9.10
2019-03-19T11:54:47.594Z,8.70
2019-03-19T11:57:47.025Z,8.60
2019-03-19T12:00:51.198Z,8.60
2019-03-19T12:03:50.912Z,8.70
2019-03-19T12:06:50.388Z,8.70
2019-03-19T12:09:50.940Z,8.80
2019-03-19T12:12:51.205Z,9.10
2019-03-19T12:15:51.506Z,9.60
2019-03-19T12:18:50.964Z,9.80
2019-03-19T12:21:51.424Z,10.20
2019-03-19T12:24:51.654Z,10.00
2019-03-19T12:27:52.020Z,9.60
2019-03-19T12:30:51.359Z,9.80
2019-03-19T12:33:50.514Z,9.60
2019-03-19T12:36:49.983Z,9.60
2019-03-19T12:39:49.204Z,9.60
2019-03-19T12:42:48.583Z,9.60
2019-03-19T12:45:47.827Z,9.80
2019-03-19T12:48:47.349Z,10.20
2019-03-19T12:51:47.546Z,10.80
2019-03-19T12:54:47.755Z,11.00
2019-03-19T12:57:46.979Z,11.10
2019-03-19T13:00:46.320Z,11.70
2019-03-19T13:03:45.565Z,12.40
2019-03-19T13:06:45.219Z,13.10
2019-03-19T13:09:45.368Z,13.70
2019-03-19T13:12:44.611Z,13.90
2019-03-19T13:15:43.892Z,13.50
2019-03-19T13:18:43.067Z,13.10
2019-03-19T13:21:42.433Z,12.80
2019-03-19T13:24:41.753Z,12.30
2019-03-19T13:27:43.486Z,11.70
2019-03-19T13:30:45.418Z,11.50
2019-03-19T13:33:43.644Z,11.40
2019-03-19T13:36:43.039Z,11.30
2019-03-19T13:39:42.291Z,10.90
2019-03-19T13:42:42.413Z,10.80
2019-03-19T13:45:41.687Z,10.60
2019-03-19T13:48:41.029Z,10.80
2019-03-19T13:51:40.278Z,10.60
2019-03-19T13:54:39.634Z,10.30
2019-03-19T13:57:39.820Z,10.00
2019-03-19T14:00:39.382Z,9.90
2019-03-19T14:03:38.814Z,9.90
2019-03-19T14:06:38.808Z,10.30
2019-03-19T14:09:37.845Z,10.80
2019-03-19T14:12:37.145Z,11.40
2019-03-19T14:15:36.414Z,11.70
2019-03-19T14:18:36.259Z,11.90
2019-03-19T14:21:35.845Z,12.40
2019-03-19T14:24:35.208Z,13.10
2019-03-19T14:27:34.452Z,13.60
2019-03-19T14:30:33.829Z,13.70
2019-03-19T14:33:33.941Z,13.80
2019-03-19T14:36:34.260Z,13.90
2019-03-19T14:39:33.463Z,13.80
2019-03-19T14:42:32.534Z,14.00
2019-03-19T14:45:31.794Z,14.10
2019-03-19T14:48:31.260Z,14.40
2019-03-19T14:51:31.347Z,14.50
2019-03-19T14:54:30.805Z,14.30
2019-03-19T14:57:30.358Z,14.00
2019-03-19T15:00:30.249Z,14.20
2019-03-19T15:03:29.415Z,14.30
2019-03-19T15:06:32.614Z,13.80
2019-03-19T15:09:32.023Z,14.00
2019-03-19T15:12:31.418Z,14.30
2019-03-19T15:15:30.699Z,13.90
2019-03-19T15:18:30.872Z,14.00
2019-03-19T15:21:30.318Z,14.00
2019-03-19T15:24:29.844Z,14.00
2019-03-19T15:27:29.046Z,13.90
2019-03-19T15:30:28.280Z,13.80
2019-03-19T15:33:28.760Z,13.60
2019-03-19T15:36:27.934Z,12.80
2019-03-19T15:39:27.099Z,12.90
2019-03-19T15:42:26.385Z,12.90
2019-03-19T15:45:25.586Z,12.70
2019-03-19T15:48:25.014Z,12.90
2019-03-19T15:51:24.754Z,13.00
2019-03-19T15:54:26.559Z,13.50
2019-03-19T15:57:25.691Z,13.90
2019-03-19T16:00:32.191Z,14.00
2019-03-19T16:03:31.625Z,14.10
2019-03-19T16:06:35.139Z,13.80
2019-03-19T16:09:35.289Z,14.00
2019-03-19T16:12:34.682Z,14.90
2019-03-19T16:15:33.965Z,15.80
2019-03-19T16:18:34.077Z,16.60
2019-03-19T16:21:33.656Z,16.80
2019-03-19T16:24:33.522Z,16.90
2019-03-19T16:27:19.786Z,16.70
2019-03-19T16:30:25.931Z,15.10
2019-03-19T16:33:25.775Z,14.60
2019-03-19T16:36:25.254Z,14.00
2019-03-19T16:39:25.460Z,13.20
2019-03-19T16:42:25.598Z,12.60
2019-03-19T16:45:24.896Z,11.90
2019-03-19T16:48:25.369Z,11.40
2019-03-19T16:51:25.328Z,10.80
2019-03-19T16:54:25.235Z,10.50
2019-03-19T16:57:24.412Z,10.40
2019-03-19T17:00:23.976Z,10.20
2019-03-19T17:03:30.517Z,10.20
2019-03-19T17:09:52.374Z,9.90
2019-03-19T17:12:51.819Z,9.70
2019-03-19T17:15:51.574Z,9.60
2019-03-19T17:18:51.866Z,9.50
2019-03-19T17:21:51.211Z,9.30
2019-03-19T17:24:50.678Z,9.20
2019-03-19T17:27:50.939Z,9.00
2019-03-19T17:30:50.301Z,8.80
2019-03-19T17:33:49.656Z,8.70
2019-03-19T17:36:49.004Z,8.50
2019-03-19T17:39:48.500Z,8.30
2019-03-19T17:42:48.809Z,8.20
2019-03-19T17:45:48.973Z,8.00
2019-03-19T17:48:48.208Z,7.80
2019-03-19T17:51:47.537Z,7.70
2019-03-19T17:54:46.991Z,7.60
2019-03-19T17:57:46.338Z,7.40
2019-03-19T18:00:53.306Z,7.20
2019-03-19T18:03:53.315Z,7.00
2019-03-19T18:06:53.186Z,6.90
2019-03-19T18:09:53.439Z,6.90
2019-03-19T18:12:53.781Z,6.70
2019-03-19T18:15:54.080Z,6.70
2019-03-19T18:18:54.410Z,6.60
2019-03-19T18:21:54.492Z,6.50
2019-03-19T18:24:54.914Z,6.40
2019-03-19T18:27:54.874Z,6.30
2019-03-19T18:30:55.171Z,6.20
2019-03-19T18:33:54.854Z,6.10
2019-03-19T18:36:55.273Z,6.00
2019-03-19T18:39:55.308Z,6.00
2019-03-19T18:42:55.613Z,5.90
2019-03-19T18:45:57.141Z,5.90
2019-03-19T18:48:57.310Z,5.80
2019-03-19T18:51:57.499Z,5.90
2019-03-19T18:54:57.666Z,5.70
2019-03-19T18:57:58.048Z,5.60
2019-03-19T19:00:58.136Z,5.50
2019-03-19T19:03:57.514Z,5.30
2019-03-19T19:06:57.938Z,5.20
2019-03-19T19:09:58.198Z,5.10
2019-03-19T19:12:57.572Z,5.10
2019-03-19T19:15:57.194Z,5.00
2019-03-19T19:18:56.917Z,4.90
2019-03-19T19:21:56.929Z,4.80
2019-03-19T19:24:56.366Z,4.70
2019-03-19T19:27:55.893Z,4.60
2019-03-19T19:30:55.286Z,4.60
2019-03-19T19:33:54.795Z,4.50
2019-03-19T19:36:54.119Z,4.50
2019-03-19T19:39:53.739Z,4.40
2019-03-19T19:42:54.128Z,4.30
2019-03-19T19:45:53.969Z,4.10
2019-03-19T19:48:53.308Z,4.00
2019-03-19T19:51:52.684Z,3.90
2019-03-19T19:54:52.088Z,3.90
2019-03-19T19:57:51.822Z,3.90
2019-03-19T20:00:51.021Z,3.90
2019-03-19T20:03:50.615Z,3.80
2019-03-19T20:06:50.242Z,3.60
2019-03-19T20:09:50.698Z,3.60
2019-03-19T20:12:50.870Z,3.50
2019-03-19T20:15:51.057Z,3.50
2019-03-19T20:18:50.540Z,3.40
2019-03-19T20:21:49.882Z,3.40
2019-03-19T20:24:49.535Z,3.30
2019-03-19T20:27:49.473Z,3.30
2019-03-19T20:30:48.839Z,3.30
2019-03-19T20:33:48.553Z,3.30
2019-03-19T20:36:48.598Z,3.20
2019-03-19T20:39:48.779Z,3.10
2019-03-19T20:42:48.132Z,3.00
2019-03-19T20:45:47.548Z,2.90
2019-03-19T20:48:51.071Z,2.90
2019-03-19T20:51:50.350Z,2.90
2019-03-19T20:54:50.112Z,2.70
2019-03-19T20:57:50.247Z,2.70
2019-03-19T21:00:49.596Z,2.70
2019-03-19T21:03:49.159Z,2.60
2019-03-19T21:06:48.704Z,2.70
2019-03-19T21:09:48.936Z,2.70
2019-03-19T21:12:49.076Z,2.60
2019-03-19T21:15:48.699Z,2.50
2019-03-19T21:18:48.881Z,2.60
2019-03-19T21:21:48.345Z,2.60
2019-03-19T21:24:48.048Z,2.50
2019-03-19T21:27:34.637Z,2.40
2019-03-19T21:30:34.737Z,2.30
2019-03-19T21:33:33.986Z,2.20
2019-03-19T21:36:33.173Z,2.10
2019-03-19T21:39:32.338Z,2.10
2019-03-19T21:42:32.041Z,2.10
2019-03-19T21:45:31.602Z,2.00
2019-03-19T21:48:31.764Z,1.90
2019-03-19T21:51:31.068Z,1.90
2019-03-19T21:54:30.256Z,1.90
2019-03-19T21:57:29.765Z,1.80
2019-03-19T22:00:29.048Z,1.90
2019-03-19T22:03:32.203Z,1.90
2019-03-19T22:06:32.374Z,1.80
2019-03-19T22:09:31.949Z,1.90
2019-03-19T22:12:32.011Z,1.90
2019-03-19T22:15:31.463Z,1.80
2019-03-19T22:18:30.755Z,1.80
2019-03-19T22:21:29.954Z,1.80
2019-03-19T22:24:29.584Z,1.80
2019-03-19T22:27:28.962Z,1.80
2019-03-19T22:30:28.638Z,1.80
2019-03-19T22:33:29.167Z,1.70
2019-03-19T22:36:28.247Z,1.60
2019-03-19T22:39:28.370Z,1.60
2019-03-19T22:42:27.983Z,1.60
2019-03-19T22:45:27.380Z,1.50
2019-03-19T22:48:27.054Z,1.50
2019-03-19T22:51:26.475Z,1.60
2019-03-19T22:54:25.897Z,1.60
2019-03-19T22:57:25.427Z,1.70
2019-03-19T23:00:26.763Z,1.60
2019-03-19T23:03:26.332Z,1.60
2019-03-19T23:06:26.051Z,1.60
2019-03-19T23:09:25.577Z,1.60
2019-03-19T23:12:25.032Z,1.60
2019-03-19T23:15:24.697Z,1.60
2019-03-19T23:18:24.107Z,1.60
2019-03-19T23:21:23.672Z,1.30
2019-03-19T23:24:27.027Z,1.40
2019-03-19T23:27:26.621Z,1.30
2019-03-19T23:30:26.191Z,1.30
2019-03-19T23:33:25.653Z,1.30
2019-03-19T23:36:24.751Z,1.20
2019-03-19T23:39:24.058Z,1.20
2019-03-19T23:42:23.305Z,1.10
2019-03-19T23:45:22.641Z,1.00
2019-03-19T23:48:22.077Z,0.90
2019-03-19T23:51:21.467Z,0.90
2019-03-19T23:54:20.865Z,0.90
2019-03-19T23:57:20.306Z,0.90
